Time;durP1;ratioP1;P1;durP2;ratioP2;P2;SDS_P1;SDS_P2;PMS_P1;PMS_P2;Temp;Humidity;BMP_temperature;BMP_pressure;BME280_temperature;BME280_humidity;BME280_pressure;Samples;Min_cycle;Max_cycle;Signal;HPM_P1;HPM_P2
2023/12/24 00:00:20;;;;;;;9.90;1.20;;;10.90;99.90;;;;;;5047001;28;20028;-65
2023/12/24 00:02:45;;;;;;;8.45;1.60;;;10.90;99.90;;;;;;5054708;28;20043;-64
2023/12/24 00:05:11;;;;;;;3.75;1.00;;;10.90;99.90;;;;;;5055039;28;20040;-64
2023/12/24 00:07:37;;;;;;;2.35;1.23;;;10.80;99.90;;;;;;5046462;28;20509;-64
2023/12/24 00:10:02;;;;;;;10.60;1.35;;;10.80;99.90;;;;;;5050132;28;20033;-64
2023/12/24 00:12:28;;;;;;;6.75;0.98;;;10.80;99.90;;;;;;5050977;28;20036;-64
2023/12/24 00:14:54;;;;;;;3.42;0.90;;;10.70;99.90;;;;;;5060013;28;20402;-62
2023/12/24 00:17:20;;;;;;;3.67;1.20;;;10.70;99.90;;;;;;5062958;28;20439;-63
2023/12/24 00:19:45;;;;;;;8.00;1.50;;;10.70;99.90;;;;;;5055538;28;20043;-64
2023/12/24 00:22:11;;;;;;;3.88;1.00;;;10.70;99.90;;;;;;5059654;28;20033;-64
2023/12/24 00:24:37;;;;;;;3.35;1.08;;;10.60;99.90;;;;;;5054160;28;20571;-63
2023/12/24 00:27:03;;;;;;;4.05;0.98;;;10.60;99.90;;;;;;5050836;28;20048;-64
2023/12/24 00:29:28;;;;;;;1.85;0.75;;;10.60;99.90;;;;;;5050286;28;20111;-64
2023/12/24 00:31:54;;;;;;;1.83;1.00;;;10.60;99.90;;;;;;5052236;28;20398;-61
2023/12/24 00:34:20;;;;;;;3.53;0.90;;;10.60;99.90;;;;;;5051107;28;20021;-64
2023/12/24 00:36:45;;;;;;;2.45;0.77;;;10.60;99.90;;;;;;5045204;28;20557;-63
2023/12/24 00:39:11;;;;;;;1.95;0.75;;;10.60;99.90;;;;;;5049156;28;20453;-64
2023/12/24 00:41:39;;;;;;;6.90;0.98;;;10.60;99.90;;;;;;5066324;28;20472;-63
2023/12/24 00:44:05;;;;;;;1.20;0.77;;;10.50;99.90;;;;;;5051877;28;20025;-63
2023/12/24 00:46:31;;;;;;;3.30;0.60;;;10.50;99.90;;;;;;5057642;28;20081;-63
2023/12/24 00:48:56;;;;;;;2.78;0.82;;;10.50;99.90;;;;;;5049179;28;20083;-63
2023/12/24 00:51:22;;;;;;;3.03;0.57;;;10.50;99.90;;;;;;5050405;28;20025;-63
2023/12/24 00:53:47;;;;;;;3.00;0.60;;;10.50;99.90;;;;;;5048719;28;20449;-63
2023/12/24 00:56:13;;;;;;;1.15;0.50;;;10.60;99.90;;;;;;5061975;28;20494;-63
2023/12/24 00:58:38;;;;;;;3.10;0.70;;;10.60;99.90;;;;;;5049414;28;20179;-63
2023/12/24 01:01:04;;;;;;;9.20;1.40;;;10.60;99.90;;;;;;5062210;28;20507;-63
2023/12/24 01:03:30;;;;;;;5.05;1.05;;;10.60;99.90;;;;;;5049062;28;20498;-63
2023/12/24 01:05:55;;;;;;;1.05;0.57;;;10.60;99.90;;;;;;5052865;28;20032;-62
2023/12/24 01:08:21;;;;;;;2.35;0.60;;;10.60;99.90;;;;;;5048839;28;20094;-63
2023/12/24 01:10:48;;;;;;;2.03;0.57;;;10.60;99.90;;;;;;5053613;28;20041;-60
2023/12/24 01:13:18;;;;;;;1.23;0.32;;;10.50;99.90;;;;;;5052136;28;20027;-63
2023/12/24 01:15:45;;;;;;;0.47;0.40;;;10.50;99.90;;;;;;5056183;28;20096;-63
2023/12/24 01:18:11;;;;;;;2.17;0.50;;;10.50;99.90;;;;;;5050973;28;20078;-63
2023/12/24 01:20:36;;;;;;;2.00;0.50;;;10.50;99.90;;;;;;5054696;28;20402;-62
2023/12/24 01:23:03;;;;;;;1.40;0.50;;;10.50;99.90;;;;;;5039684;28;20018;-63
2023/12/24 01:25:28;;;;;;;0.65;0.55;;;10.50;99.90;;;;;;5055381;28;20487;-63
2023/12/24 01:27:54;;;;;;;2.08;0.38;;;10.40;99.90;;;;;;5049717;28;20043;-64
2023/12/24 01:30:20;;;;;;;1.17;0.35;;;10.40;99.90;;;;;;5060236;28;20422;-62
2023/12/24 01:32:46;;;;;;;0.47;0.20;;;10.50;99.90;;;;;;5057886;28;20556;-63
2023/12/24 01:35:11;;;;;;;0.47;0.47;;;10.50;99.90;;;;;;5054927;28;20037;-61
2023/12/24 01:37:37;;;;;;;2.10;0.63;;;10.40;99.90;;;;;;5048387;28;20035;-63
2023/12/24 01:40:02;;;;;;;0.57;0.40;;;10.30;99.90;;;;;;5052831;28;20036;-63
2023/12/24 01:42:28;;;;;;;1.58;0.45;;;10.20;99.90;;;;;;5051938;28;20055;-64
2023/12/24 01:44:53;;;;;;;4.57;0.55;;;10.10;99.90;;;;;;5049985;28;20025;-63
2023/12/24 01:47:19;;;;;;;0.80;0.50;;;10.10;99.90;;;;;;5046415;28;20027;-63
2023/12/24 01:49:45;;;;;;;2.35;0.40;;;10.10;99.90;;;;;;5051976;28;20380;-63
2023/12/24 01:52:12;;;;;;;1.17;0.88;;;10.10;99.90;;;;;;5044633;28;20037;-63
2023/12/24 01:54:37;;;;;;;0.40;0.30;;;10.00;99.90;;;;;;5053299;28;20051;-65
2023/12/24 01:57:04;;;;;;;4.22;0.45;;;10.00;99.90;;;;;;5044573;28;20490;-63
2023/12/24 01:59:31;;;;;;;4.75;0.40;;;10.00;99.90;;;;;;5055636;28;20043;-62
2023/12/24 02:01:57;;;;;;;1.67;0.45;;;10.00;99.90;;;;;;5045499;28;20490;-63
2023/12/24 02:04:23;;;;;;;5.68;0.60;;;9.90;99.90;;;;;;5052085;28;20031;-63
2023/12/24 02:06:50;;;;;;;0.30;0.30;;;9.90;99.90;;;;;;5055701;28;20078;-63
2023/12/24 02:09:16;;;;;;;0.30;0.30;;;9.90;99.90;;;;;;5047457;28;20029;-62
2023/12/24 02:11:42;;;;;;;3.72;0.40;;;10.00;99.90;;;;;;5057955;28;20043;-63
2023/12/24 02:14:07;;;;;;;2.95;0.40;;;10.00;99.90;;;;;;5043399;28;20035;-63
2023/12/24 02:16:39;;;;;;;0.98;0.35;;;10.00;99.90;;;;;;5053937;28;20040;-63
2023/12/24 02:19:06;;;;;;;0.85;0.47;;;10.00;99.90;;;;;;5043827;28;20033;-63
2023/12/24 02:21:31;;;;;;;0.52;0.40;;;10.00;99.90;;;;;;5055261;28;20028;-63
2023/12/24 02:23:57;;;;;;;0.40;0.40;;;10.10;99.90;;;;;;5048325;28;20390;-63
2023/12/24 02:26:24;;;;;;;0.50;0.20;;;10.10;99.90;;;;;;5061165;28;20167;-63
2023/12/24 02:28:55;;;;;;;0.70;0.30;;;10.20;99.90;;;;;;5042387;28;20093;-63
2023/12/24 02:31:25;;;;;;;0.82;0.22;;;10.30;99.90;;;;;;5055161;28;20044;-63
2023/12/24 02:33:53;;;;;;;1.05;0.30;;;10.30;99.90;;;;;;5044254;28;20036;-63
2023/12/24 02:36:20;;;;;;;0.93;0.30;;;10.40;99.90;;;;;;5058651;28;20029;-63
2023/12/24 02:38:46;;;;;;;0.20;0.20;;;10.40;99.90;;;;;;5037582;28;20492;-63
2023/12/24 02:41:11;;;;;;;3.30;0.40;;;10.40;99.90;;;;;;5052403;28;20068;-63
2023/12/24 02:43:37;;;;;;;1.90;0.45;;;10.40;99.90;;;;;;5046472;28;20394;-63
2023/12/24 02:46:02;;;;;;;0.65;0.30;;;10.40;99.90;;;;;;5042531;28;20021;-62
2023/12/24 02:48:28;;;;;;;0.40;0.20;;;10.40;99.90;;;;;;5044441;28;20033;-63
2023/12/24 02:50:53;;;;;;;0.70;0.20;;;10.50;99.90;;;;;;5051475;28;20530;-62
2023/12/24 02:53:19;;;;;;;0.85;0.30;;;10.50;99.90;;;;;;5039349;28;20368;-63
2023/12/24 02:55:45;;;;;;;0.75;0.30;;;10.50;99.90;;;;;;5042288;28;20509;-63
2023/12/24 02:58:12;;;;;;;0.17;0.17;;;10.50;99.90;;;;;;5042584;28;20422;-63
2023/12/24 03:00:37;;;;;;;2.80;1.00;;;10.60;99.90;;;;;;5048666;28;20020;-63
2023/12/24 03:03:03;;;;;;;1.77;0.20;;;10.50;99.90;;;;;;5056199;28;20024;-61
2023/12/24 03:05:29;;;;;;;0.50;0.30;;;10.60;99.90;;;;;;5043206;28;20079;-63
2023/12/24 03:07:54;;;;;;;2.05;0.30;;;10.50;99.90;;;;;;5056333;28;20032;-63
2023/12/24 03:10:20;;;;;;;0.25;0.25;;;10.50;99.90;;;;;;5044287;28;20020;-62
2023/12/24 03:12:45;;;;;;;0.40;0.30;;;10.50;99.90;;;;;;5046237;28;20697;-63
2023/12/24 03:15:11;;;;;;;0.70;0.28;;;10.40;99.90;;;;;;5045860;28;20033;-63
2023/12/24 03:17:37;;;;;;;0.38;0.30;;;10.40;99.90;;;;;;5045830;28;20036;-63
2023/12/24 03:20:03;;;;;;;1.20;0.30;;;10.40;99.90;;;;;;5043894;28;20442;-64
2023/12/24 03:22:29;;;;;;;0.40;0.15;;;10.40;99.90;;;;;;5042908;28;20100;-63
2023/12/24 03:24:54;;;;;;;0.25;0.17;;;10.40;99.90;;;;;;5042226;28;20450;-63
2023/12/24 03:27:20;;;;;;;1.65;1.00;;;10.30;99.90;;;;;;5042079;28;20100;-63
2023/12/24 03:29:45;;;;;;;0.43;0.43;;;10.30;99.90;;;;;;5044692;28;20029;-63
2023/12/24 03:32:12;;;;;;;0.30;0.30;;;10.30;99.90;;;;;;5042895;28;20044;-63
2023/12/24 03:34:37;;;;;;;1.02;0.38;;;10.20;99.90;;;;;;5045557;28;20026;-62
2023/12/24 03:37:03;;;;;;;2.35;0.50;;;10.20;99.90;;;;;;5043447;28;20025;-63
2023/12/24 03:39:28;;;;;;;1.98;0.50;;;10.30;99.90;;;;;;5042173;28;20029;-63
2023/12/24 03:41:54;;;;;;;0.60;0.50;;;10.40;99.90;;;;;;5048864;28;20021;-63
2023/12/24 03:44:19;;;;;;;5.43;0.40;;;10.40;99.90;;;;;;5047862;28;20364;-63
2023/12/24 03:46:45;;;;;;;2.78;0.40;;;10.40;99.90;;;;;;5050707;28;20017;-63
2023/12/24 03:49:11;;;;;;;5.88;0.68;;;10.40;99.90;;;;;;5047342;28;20017;-63
2023/12/24 03:51:36;;;;;;;1.77;0.35;;;10.40;99.90;;;;;;5049966;28;20029;-63
2023/12/24 03:54:02;;;;;;;0.77;0.30;;;10.30;99.90;;;;;;5041856;28;20032;-63
2023/12/24 03:56:27;;;;;;;0.30;0.30;;;10.30;99.90;;;;;;5065633;28;20040;-63
2023/12/24 03:58:53;;;;;;;0.22;0.22;;;10.30;99.90;;;;;;5044160;28;20025;-63
2023/12/24 04:01:26;;;;;;;0.45;0.32;;;10.30;99.90;;;;;;5050202;28;20045;-63
2023/12/24 04:03:52;;;;;;;1.40;0.30;;;10.30;99.90;;;;;;5045355;28;20483;-64
2023/12/24 04:06:18;;;;;;;0.30;0.30;;;10.30;99.90;;;;;;5049670;28;20032;-63
2023/12/24 04:08:44;;;;;;;1.42;0.52;;;10.30;99.90;;;;;;5042673;28;20071;-63
2023/12/24 04:11:17;;;;;;;0.68;0.22;;;10.20;99.90;;;;;;5055056;28;20029;-62
2023/12/24 04:13:43;;;;;;;0.40;0.40;;;10.20;99.90;;;;;;5049916;28;20025;-64
2023/12/24 04:16:09;;;;;;;0.30;0.30;;;10.20;99.90;;;;;;5046115;28;20033;-63
2023/12/24 04:18:34;;;;;;;0.30;0.30;;;10.20;99.90;;;;;;5044616;28;20038;-63
2023/12/24 04:21:00;;;;;;;0.57;0.28;;;10.20;99.90;;;;;;5052750;28;20029;-63
2023/12/24 04:23:26;;;;;;;0.20;0.20;;;10.10;99.90;;;;;;5056049;28;20017;-63
2023/12/24 04:25:51;;;;;;;0.30;0.20;;;10.20;99.90;;;;;;5050382;28;20040;-63
2023/12/24 04:28:17;;;;;;;1.63;0.38;;;10.20;99.90;;;;;;5060568;28;20029;-63
2023/12/24 04:30:42;;;;;;;0.30;0.30;;;10.20;99.90;;;;;;5050799;28;20044;-63
2023/12/24 04:33:08;;;;;;;0.30;0.30;;;10.20;99.90;;;;;;5050599;28;20033;-63
2023/12/24 04:35:33;;;;;;;0.80;0.20;;;10.20;99.90;;;;;;5050642;28;20031;-63
2023/12/24 04:37:59;;;;;;;0.28;0.20;;;10.20;99.90;;;;;;5052617;28;20061;-63
2023/12/24 04:40:25;;;;;;;0.75;0.38;;;10.20;99.90;;;;;;5049255;28;20025;-63
2023/12/24 04:42:51;;;;;;;2.30;0.20;;;10.20;99.90;;;;;;5051287;28;20545;-64
2023/12/24 04:45:16;;;;;;;0.20;0.20;;;10.20;99.90;;;;;;5043521;28;20108;-63
2023/12/24 04:47:42;;;;;;;0.30;0.30;;;10.20;99.90;;;;;;5057408;28;20052;-63
2023/12/24 04:50:08;;;;;;;1.98;0.20;;;10.20;99.90;;;;;;5048252;28;20028;-63
2023/12/24 04:52:35;;;;;;;0.30;0.30;;;10.20;99.90;;;;;;5055389;28;20020;-64
2023/12/24 04:55:07;;;;;;;1.77;0.20;;;10.20;99.90;;;;;;5044757;28;20112;-63
2023/12/24 04:57:33;;;;;;;0.63;0.22;;;10.30;99.90;;;;;;5055987;28;20021;-64
2023/12/24 04:59:59;;;;;;;0.20;0.20;;;10.30;99.90;;;;;;5047759;28;20033;-63
2023/12/24 05:02:25;;;;;;;0.03;0.03;;;10.30;99.90;;;;;;5063547;28;20036;-64
2023/12/24 05:04:51;;;;;;;0.20;0.20;;;10.30;99.90;;;;;;5049744;28;20098;-62
2023/12/24 05:07:17;;;;;;;0.30;0.30;;;10.30;99.90;;;;;;5055583;28;20032;-63
2023/12/24 05:09:42;;;;;;;0.10;0.10;;;10.30;99.90;;;;;;5052519;28;20033;-62
2023/12/24 05:12:08;;;;;;;1.38;0.20;;;10.30;99.90;;;;;;5050922;28;20033;-63
2023/12/24 05:14:35;;;;;;;1.98;0.30;;;10.40;99.90;;;;;;5048115;28;20380;-63
2023/12/24 05:17:02;;;;;;;1.88;0.30;;;10.30;99.90;;;;;;5048745;28;20037;-63
2023/12/24 05:19:28;;;;;;;0.20;0.20;;;10.30;99.90;;;;;;5045683;28;20028;-63
2023/12/24 05:21:53;;;;;;;0.30;0.20;;;10.30;99.90;;;;;;5046523;28;20025;-63
2023/12/24 05:24:19;;;;;;;0.20;0.20;;;10.30;99.90;;;;;;5045916;28;20484;-63
2023/12/24 05:26:44;;;;;;;0.20;0.20;;;10.30;99.90;;;;;;5051492;28;20103;-63
2023/12/24 05:29:10;;;;;;;0.10;0.10;;;10.30;99.90;;;;;;5048278;28;20037;-61
2023/12/24 05:31:40;;;;;;;0.20;0.20;;;10.40;99.90;;;;;;5044141;28;20040;-62
2023/12/24 05:34:06;;;;;;;0.10;0.10;;;10.40;99.90;;;;;;5053519;28;20104;-62
2023/12/24 05:36:34;;;;;;;0.20;0.20;;;10.40;99.90;;;;;;5053225;28;20059;-62
2023/12/24 05:39:00;;;;;;;0.20;0.20;;;10.40;99.90;;;;;;5039166;28;20017;-63
2023/12/24 05:41:27;;;;;;;0.10;0.10;;;10.50;99.90;;;;;;5047864;28;20381;-63
2023/12/24 05:43:53;;;;;;;0.20;0.20;;;10.50;99.90;;;;;;5049690;28;20024;-63
2023/12/24 05:46:20;;;;;;;0.70;0.20;;;10.50;99.90;;;;;;5048684;28;20017;-62
2023/12/24 05:48:45;;;;;;;0.10;0.10;;;10.50;99.90;;;;;;5048458;28;20021;-63
2023/12/24 05:51:11;;;;;;;0.10;0.10;;;10.50;99.90;;;;;;5050084;28;20398;-62
2023/12/24 05:53:37;;;;;;;0.10;0.10;;;10.60;99.90;;;;;;5046841;28;20406;-63
2023/12/24 05:56:03;;;;;;;0.15;0.15;;;10.60;99.90;;;;;;5048128;28;20036;-63
2023/12/24 05:58:28;;;;;;;2.65;0.20;;;10.60;99.90;;;;;;5044535;28;20123;-63
2023/12/24 06:00:54;;;;;;;2.15;0.20;;;10.60;99.90;;;;;;5046321;28;20033;-62
2023/12/24 06:03:19;;;;;;;0.20;0.20;;;10.70;99.90;;;;;;5051003;28;20068;-63
2023/12/24 06:05:45;;;;;;;0.10;0.10;;;10.70;99.90;;;;;;5054402;28;20021;-63
2023/12/24 06:08:14;;;;;;;0.10;0.10;;;10.70;99.90;;;;;;5056810;28;20029;-63
2023/12/24 06:10:40;;;;;;;0.40;0.20;;;10.70;99.90;;;;;;5050520;28;20035;-63
2023/12/24 06:13:05;;;;;;;1.10;0.20;;;10.70;99.90;;;;;;5051175;28;20028;-63
2023/12/24 06:15:31;;;;;;;0.20;0.20;;;10.70;99.90;;;;;;5046128;28;20044;-63
2023/12/24 06:17:57;;;;;;;0.20;0.20;;;10.70;99.90;;;;;;5048129;28;20017;-63
2023/12/24 06:20:22;;;;;;;0.25;0.25;;;10.70;99.90;;;;;;5048307;28;20028;-63
2023/12/24 06:22:48;;;;;;;0.17;0.17;;;10.70;99.90;;;;;;5043532;28;20021;-63
2023/12/24 06:25:13;;;;;;;0.35;0.20;;;10.70;99.90;;;;;;5052082;28;20083;-62
2023/12/24 06:27:39;;;;;;;0.10;0.10;;;10.70;99.90;;;;;;5058086;28;21090;-63
2023/12/24 06:30:05;;;;;;;2.45;0.10;;;10.70;99.90;;;;;;5051496;28;20115;-62
2023/12/24 06:32:31;;;;;;;0.55;0.20;;;10.70;99.90;;;;;;5051244;28;20111;-63
2023/12/24 06:34:57;;;;;;;0.22;0.20;;;10.80;99.90;;;;;;5050367;28;20104;-63
2023/12/24 06:37:22;;;;;;;0.50;0.20;;;10.80;99.90;;;;;;5054441;28;20472;-62
2023/12/24 06:39:48;;;;;;;0.20;0.20;;;10.80;99.90;;;;;;5050486;28;20059;-63
2023/12/24 06:42:13;;;;;;;0.90;0.25;;;10.80;99.90;;;;;;5048143;28;20032;-64
2023/12/24 06:44:41;;;;;;;0.22;0.22;;;10.80;99.90;;;;;;5049385;28;20384;-64
2023/12/24 06:47:07;;;;;;;0.38;0.20;;;10.90;99.90;;;;;;5048567;28;20164;-62
2023/12/24 06:49:32;;;;;;;0.35;0.20;;;11.00;99.90;;;;;;5045048;28;20477;-64
2023/12/24 06:51:58;;;;;;;0.63;0.30;;;11.00;99.90;;;;;;5046805;28;20123;-63
2023/12/24 06:54:23;;;;;;;0.50;0.50;;;11.10;99.90;;;;;;5049435;28;20025;-63
2023/12/24 06:56:49;;;;;;;0.10;0.10;;;11.10;99.90;;;;;;5048702;28;20492;-63
2023/12/24 06:59:14;;;;;;;0.10;0.10;;;11.10;99.90;;;;;;5049498;28;20605;-63
2023/12/24 07:01:40;;;;;;;0.00;0.00;;;11.10;99.90;;;;;;5045436;28;20021;-63
2023/12/24 07:04:06;;;;;;;0.20;0.20;;;11.10;99.90;;;;;;5048176;28;20383;-63
2023/12/24 07:06:31;;;;;;;0.20;0.20;;;11.10;99.90;;;;;;5047725;28;20025;-62
2023/12/24 07:08:56;;;;;;;0.10;0.10;;;11.10;99.90;;;;;;5048422;28;20033;-63
2023/12/24 07:11:22;;;;;;;0.20;0.20;;;11.20;99.90;;;;;;5048025;28;20029;-63
2023/12/24 07:13:47;;;;;;;0.20;0.20;;;11.20;99.90;;;;;;5047654;28;20036;-63
2023/12/24 07:16:13;;;;;;;0.10;0.10;;;11.20;99.90;;;;;;5047244;28;20398;-63
2023/12/24 07:18:39;;;;;;;0.20;0.20;;;11.30;99.90;;;;;;5049444;28;20525;-63
2023/12/24 07:21:05;;;;;;;0.10;0.10;;;11.30;99.90;;;;;;5047894;28;20020;-63
2023/12/24 07:23:31;;;;;;;0.20;0.20;;;11.30;99.90;;;;;;5052017;28;20028;-64
2023/12/24 07:25:56;;;;;;;0.20;0.20;;;11.30;99.90;;;;;;5051887;28;20035;-63
2023/12/24 07:28:22;;;;;;;4.40;0.13;;;11.30;99.90;;;;;;5052506;28;20063;-63
2023/12/24 07:30:47;;;;;;;0.20;0.20;;;11.30;99.90;;;;;;5051958;28;20048;-62
2023/12/24 07:33:13;;;;;;;0.10;0.10;;;11.30;99.90;;;;;;5051142;28;20113;-62
2023/12/24 07:35:39;;;;;;;0.20;0.20;;;11.20;99.90;;;;;;5052381;28;20056;-63
2023/12/24 07:38:05;;;;;;;0.32;0.28;;;11.20;99.90;;;;;;5050375;28;20040;-61
2023/12/24 07:40:31;;;;;;;0.20;0.20;;;11.30;99.90;;;;;;5049211;28;20100;-62
2023/12/24 07:42:59;;;;;;;0.10;0.10;;;11.30;99.90;;;;;;5053176;28;20071;-63
2023/12/24 07:45:27;;;;;;;0.10;0.10;;;11.30;99.90;;;;;;5053140;28;20068;-63
2023/12/24 07:47:53;;;;;;;0.10;0.10;;;11.30;99.90;;;;;;5053437;28;20048;-62
2023/12/24 07:50:18;;;;;;;0.20;0.20;;;11.30;99.90;;;;;;5054141;28;20064;-63
2023/12/24 07:52:44;;;;;;;0.20;0.20;;;11.30;99.90;;;;;;5051248;28;20033;-63
2023/12/24 07:55:10;;;;;;;1.90;0.20;;;11.30;99.90;;;;;;5054011;28;20475;-63
2023/12/24 07:57:35;;;;;;;0.50;0.40;;;11.30;99.90;;;;;;5053676;28;20032;-63
2023/12/24 08:00:02;;;;;;;0.20;0.20;;;11.30;99.90;;;;;;5050417;28;20033;-63
2023/12/24 08:02:28;;;;;;;0.65;0.20;;;11.40;99.90;;;;;;5055021;28;20025;-61
2023/12/24 08:04:55;;;;;;;0.20;0.20;;;11.40;99.90;;;;;;5052119;28;20032;-64
2023/12/24 08:07:21;;;;;;;0.20;0.20;;;11.40;99.90;;;;;;5051492;28;20522;-65
2023/12/24 08:09:46;;;;;;;0.28;0.20;;;11.40;99.90;;;;;;5061663;28;20029;-64
2023/12/24 08:12:12;;;;;;;0.13;0.13;;;11.50;99.90;;;;;;5054243;28;20064;-63
2023/12/24 08:14:37;;;;;;;0.32;0.20;;;11.50;99.90;;;;;;5052687;28;20449;-64
2023/12/24 08:17:03;;;;;;;1.00;0.15;;;11.50;99.90;;;;;;5052701;28;20491;-64
2023/12/24 08:19:29;;;;;;;0.20;0.20;;;11.50;99.90;;;;;;5058808;28;20089;-62
2023/12/24 08:21:54;;;;;;;0.47;0.20;;;11.60;99.90;;;;;;5052743;28;20131;-63
2023/12/24 08:24:20;;;;;;;0.38;0.10;;;11.60;99.90;;;;;;5054602;28;20471;-63
2023/12/24 08:26:45;;;;;;;0.25;0.10;;;11.70;99.90;;;;;;5072528;28;20025;-63
2023/12/24 08:29:11;;;;;;;0.20;0.20;;;11.70;99.90;;;;;;5056922;28;20367;-63
2023/12/24 08:31:36;;;;;;;0.10;0.10;;;11.60;99.90;;;;;;5053989;28;20033;-63
2023/12/24 08:34:02;;;;;;;0.43;0.10;;;11.60;99.90;;;;;;5048728;28;20044;-61
2023/12/24 08:36:28;;;;;;;0.17;0.17;;;11.60;99.90;;;;;;5052925;28;20040;-61
2023/12/24 08:38:53;;;;;;;0.10;0.10;;;11.70;99.90;;;;;;5048552;28;20033;-63
2023/12/24 08:41:19;;;;;;;3.85;0.22;;;11.70;99.90;;;;;;5055392;28;20399;-63
2023/12/24 08:43:44;;;;;;;0.30;0.30;;;11.70;99.90;;;;;;5056962;28;20016;-63
2023/12/24 08:46:10;;;;;;;0.30;0.30;;;11.70;99.90;;;;;;5050289;28;20021;-63
2023/12/24 08:48:35;;;;;;;0.20;0.20;;;11.70;99.90;;;;;;5052400;28;20041;-63
2023/12/24 08:51:01;;;;;;;0.20;0.20;;;11.80;99.90;;;;;;5044628;28;20068;-63
2023/12/24 08:53:27;;;;;;;0.20;0.20;;;11.70;99.90;;;;;;5049294;28;20017;-63
2023/12/24 08:55:52;;;;;;;0.20;0.20;;;11.70;99.90;;;;;;5054655;28;20399;-63
2023/12/24 08:58:18;;;;;;;0.22;0.20;;;11.60;99.90;;;;;;5056692;28;20506;-63
2023/12/24 09:00:43;;;;;;;0.43;0.20;;;11.60;99.90;;;;;;5048558;28;20526;-63
2023/12/24 09:03:09;;;;;;;0.20;0.20;;;11.60;99.90;;;;;;5050322;28;20032;-63
2023/12/24 09:05:35;;;;;;;0.30;0.20;;;11.60;99.90;;;;;;5054454;28;20052;-63
2023/12/24 09:08:00;;;;;;;0.17;0.17;;;11.60;99.90;;;;;;5054443;28;20031;-63
2023/12/24 09:10:26;;;;;;;1.40;0.20;;;11.70;99.90;;;;;;5050727;28;20029;-63
2023/12/24 09:12:51;;;;;;;0.70;0.28;;;11.70;99.90;;;;;;5050744;28;20032;-63
2023/12/24 09:15:17;;;;;;;0.15;0.15;;;11.80;99.90;;;;;;5057922;28;20021;-63
2023/12/24 09:17:43;;;;;;;0.30;0.30;;;11.90;99.90;;;;;;5050118;28;20021;-63
2023/12/24 09:20:09;;;;;;;0.47;0.20;;;11.90;99.90;;;;;;5050971;28;20021;-63
2023/12/24 09:22:35;;;;;;;0.17;0.13;;;11.80;99.90;;;;;;5047269;28;20029;-63
2023/12/24 09:25:01;;;;;;;0.20;0.20;;;11.90;99.90;;;;;;5049457;28;20037;-63
2023/12/24 09:27:26;;;;;;;0.20;0.20;;;11.90;99.90;;;;;;5059076;28;20051;-63
2023/12/24 09:29:52;;;;;;;0.30;0.30;;;11.90;99.90;;;;;;5052414;28;20721;-63
2023/12/24 09:32:17;;;;;;;0.20;0.20;;;11.90;99.90;;;;;;5050216;28;20048;-64
2023/12/24 09:34:45;;;;;;;0.20;0.13;;;11.90;99.90;;;;;;5055819;28;20376;-63
2023/12/24 09:37:11;;;;;;;0.20;0.20;;;11.90;99.90;;;;;;5049766;28;20041;-64
2023/12/24 09:39:37;;;;;;;0.63;0.20;;;11.90;99.90;;;;;;5051741;28;20411;-63
2023/12/24 09:42:03;;;;;;;0.25;0.20;;;11.90;99.90;;;;;;5051635;28;20586;-63
2023/12/24 09:44:29;;;;;;;0.20;0.20;;;11.80;99.90;;;;;;5053532;28;20067;-62
2023/12/24 09:46:56;;;;;;;0.75;0.30;;;11.80;99.90;;;;;;5048546;28;20017;-62
2023/12/24 09:49:21;;;;;;;0.10;0.10;;;11.80;99.90;;;;;;5059487;28;20117;-62
2023/12/24 09:51:47;;;;;;;0.20;0.20;;;11.80;99.90;;;;;;5051218;28;20067;-64
2023/12/24 09:54:14;;;;;;;0.20;0.20;;;11.90;99.90;;;;;;5052219;28;20107;-63
2023/12/24 09:56:40;;;;;;;0.15;0.15;;;11.90;99.90;;;;;;5047163;28;20589;-64
2023/12/24 09:59:05;;;;;;;0.30;0.20;;;12.00;99.90;;;;;;5055447;28;20119;-62
2023/12/24 10:01:42;;;;;;;0.22;0.20;;;12.00;99.90;;;;;;5045597;28;20035;-63
2023/12/24 10:04:07;;;;;;;0.20;0.20;;;12.10;99.90;;;;;;5057027;28;20021;-63
2023/12/24 10:06:33;;;;;;;0.10;0.10;;;12.10;99.90;;;;;;5050822;28;20070;-62
2023/12/24 10:08:59;;;;;;;0.10;0.10;;;12.20;99.90;;;;;;5046760;28;20148;-63
2023/12/24 10:11:24;;;;;;;0.13;0.13;;;12.10;99.90;;;;;;5052759;28;20056;-63
2023/12/24 10:14:00;;;;;;;0.20;0.20;;;12.20;99.90;;;;;;5051445;28;20036;-63
2023/12/24 10:16:26;;;;;;;0.40;0.30;;;12.10;99.90;;;;;;5051014;28;20169;-63
2023/12/24 10:18:53;;;;;;;0.10;0.10;;;12.20;99.90;;;;;;5048738;28;20746;-63
2023/12/24 10:21:20;;;;;;;1.98;0.30;;;12.20;99.90;;;;;;5049521;28;20020;-63
2023/12/24 10:23:46;;;;;;;2.30;0.30;;;12.20;99.90;;;;;;5053290;28;20100;-63
2023/12/24 10:26:12;;;;;;;0.75;0.13;;;12.20;99.90;;;;;;5053173;28;20129;-63
2023/12/24 10:28:52;;;;;;;0.52;0.20;;;12.20;99.90;;;;;;5053480;28;20040;-63
2023/12/24 10:31:17;;;;;;;0.43;0.30;;;12.20;99.90;;;;;;5051863;28;20522;-63
2023/12/24 10:33:43;;;;;;;1.23;0.20;;;12.20;99.90;;;;;;5047970;28;20032;-63
2023/12/24 10:36:09;;;;;;;0.40;0.20;;;12.20;99.90;;;;;;5046646;28;20032;-63
2023/12/24 10:38:36;;;;;;;0.13;0.13;;;12.20;99.90;;;;;;5045756;28;20037;-63
2023/12/24 10:41:03;;;;;;;0.13;0.13;;;12.20;99.90;;;;;;5048567;28;20025;-62
2023/12/24 10:43:29;;;;;;;0.22;0.22;;;12.10;99.90;;;;;;5054452;28;20103;-61
2023/12/24 10:45:55;;;;;;;0.20;0.20;;;12.10;99.90;;;;;;5045958;28;20017;-62
2023/12/24 10:48:21;;;;;;;0.30;0.30;;;12.20;99.90;;;;;;5052314;28;20037;-62
2023/12/24 10:50:47;;;;;;;0.15;0.15;;;12.20;99.90;;;;;;5044647;28;20108;-60
2023/12/24 10:53:15;;;;;;;0.10;0.10;;;12.20;99.90;;;;;;5048908;28;20658;-62
2023/12/24 10:55:49;;;;;;;0.20;0.20;;;12.20;99.90;;;;;;5040130;28;20042;-63
2023/12/24 10:58:53;;;;;;;1.75;0.30;;;12.20;99.90;;;;;;5063746;28;20032;-63
2023/12/24 11:01:18;;;;;;;0.30;0.20;;;12.20;99.90;;;;;;5048332;28;20039;-63
2023/12/24 11:03:44;;;;;;;0.73;0.30;;;12.20;99.90;;;;;;5053868;28;20028;-60
2023/12/24 11:06:10;;;;;;;0.85;0.30;;;12.20;99.90;;;;;;5043677;28;20044;-63
2023/12/24 11:08:36;;;;;;;1.60;0.30;;;12.20;99.90;;;;;;5044718;28;20029;-63
2023/12/24 11:11:03;;;;;;;0.93;0.30;;;12.20;99.90;;;;;;5042232;28;20068;-63
2023/12/24 11:13:36;;;;;;;0.30;0.20;;;12.20;99.90;;;;;;5051856;28;20498;-63
2023/12/24 11:16:10;;;;;;;0.73;0.40;;;12.20;99.90;;;;;;5045628;28;20045;-62
2023/12/24 11:18:46;;;;;;;;;;;12.30;99.90;;;;;;5050078;28;20178;-63
2023/12/24 11:21:13;;;;;;;0.30;0.30;;;12.20;99.90;;;;;;5048891;28;20000;-63
2023/12/24 11:23:40;;;;;;;1.10;0.40;;;12.20;99.90;;;;;;5050519;28;20025;-63
2023/12/24 11:26:29;;;;;;;0.30;0.30;;;12.30;99.90;;;;;;5048195;28;20044;-61
2023/12/24 11:28:54;;;;;;;1.13;0.30;;;12.30;99.90;;;;;;5044637;28;20036;-63
2023/12/24 11:31:24;;;;;;;0.50;0.30;;;12.30;99.90;;;;;;5050264;28;20025;-62
2023/12/24 11:33:50;;;;;;;1.30;0.50;;;12.30;99.90;;;;;;5051059;28;20024;-63
2023/12/24 11:36:18;;;;;;;1.55;0.57;;;12.30;99.90;;;;;;5045322;28;20064;-63
2023/12/24 11:38:48;;;;;;;0.32;0.30;;;12.30;99.90;;;;;;5047226;28;20030;-62
2023/12/24 11:41:17;;;;;;;0.40;0.25;;;12.30;99.90;;;;;;5048302;28;20020;-63
2023/12/24 11:43:55;;;;;;;0.30;0.30;;;12.30;99.90;;;;;;5043043;28;20037;-61
2023/12/24 11:46:25;;;;;;;0.60;0.40;;;12.40;99.90;;;;;;5048424;28;20029;-62
2023/12/24 11:48:52;;;;;;;0.30;0.30;;;12.40;99.90;;;;;;5042825;28;20029;-63
2023/12/24 11:51:23;;;;;;;0.50;0.40;;;12.40;99.90;;;;;;5048713;28;20154;-62
2023/12/24 11:53:49;;;;;;;0.30;0.30;;;12.40;99.90;;;;;;5042468;28;20029;-62
2023/12/24 11:56:16;;;;;;;2.70;0.80;;;12.40;99.90;;;;;;5046268;28;20501;-62
2023/12/24 11:58:58;;;;;;;0.43;0.43;;;12.40;99.90;;;;;;5043768;28;20041;-63
2023/12/24 12:01:31;;;;;;;0.45;0.40;;;12.40;99.90;;;;;;5044396;28;20018;-63
2023/12/24 12:03:59;;;;;;;0.65;0.30;;;12.40;99.90;;;;;;5045368;28;20021;-61
2023/12/24 12:06:29;;;;;;;2.30;0.47;;;12.50;99.90;;;;;;5047339;28;20032;-61
2023/12/24 12:08:56;;;;;;;0.35;0.30;;;12.50;99.90;;;;;;5049974;28;20589;-61
2023/12/24 12:11:21;;;;;;;1.33;0.32;;;12.50;99.90;;;;;;5049661;28;20029;-62
2023/12/24 12:13:47;;;;;;;0.35;0.30;;;12.50;99.90;;;;;;5047739;28;20025;-61
2023/12/24 12:16:13;;;;;;;3.45;0.32;;;12.50;99.90;;;;;;5050037;28;20486;-62
2023/12/24 12:18:39;;;;;;;1.20;0.30;;;12.50;99.90;;;;;;5047395;28;20037;-60
2023/12/24 12:21:04;;;;;;;3.03;0.50;;;12.50;99.90;;;;;;5050159;28;20023;-60
2023/12/24 12:23:30;;;;;;;0.85;0.40;;;12.60;99.90;;;;;;5051907;28;20028;-62
2023/12/24 12:25:56;;;;;;;1.75;0.30;;;12.60;99.90;;;;;;5051503;28;20025;-61
2023/12/24 12:28:21;;;;;;;0.68;0.30;;;12.60;99.90;;;;;;5049467;28;20075;-62
2023/12/24 12:30:47;;;;;;;0.38;0.38;;;12.70;99.90;;;;;;5048544;28;20044;-60
2023/12/24 12:33:12;;;;;;;1.27;0.57;;;12.60;99.90;;;;;;5045605;28;20564;-61
2023/12/24 12:35:38;;;;;;;0.30;0.30;;;12.60;99.90;;;;;;5051694;28;20037;-61
2023/12/24 12:38:04;;;;;;;0.30;0.30;;;12.50;99.90;;;;;;5047713;28;20033;-61
2023/12/24 12:40:30;;;;;;;0.68;0.32;;;12.40;99.90;;;;;;5049864;28;20103;-61
2023/12/24 12:42:56;;;;;;;0.93;0.30;;;12.20;99.90;;;;;;5048119;28;20024;-60